sensor_id;sensor_type;location;lat;lon;timestamp;pressure;altitude;pressure_sealevel;temperature;humidity
57668;BME280;43499;52.366;12.912;2024-01-07T00:00:44;101470.34;;;0.45;68.35
57668;BME280;43499;52.366;12.912;2024-01-07T00:01:49;101465.69;;;0.42;68.95
57668;BME280;43499;52.366;12.912;2024-01-07T00:02:50;101446.00;;;0.17;68.29
57668;BME280;43499;52.366;12.912;2024-01-07T00:03:51;101462.09;;;0.35;68.15
57668;BME280;43499;52.366;12.912;2024-01-07T00:04:53;101459.81;;;0.30;68.53
57668;BME280;43499;52.366;12.912;2024-01-07T00:05:54;101444.28;;;0.43;69.33
57668;BME280;43499;52.366;12.912;2024-01-07T00:06:55;101453.50;;;0.41;68.89
57668;BME280;43499;52.366;12.912;2024-01-07T00:07:56;101454.63;;;0.30;68.07
57668;BME280;43499;52.366;12.912;2024-01-07T00:08:57;101471.91;;;0.37;67.66
57668;BME280;43499;52.366;12.912;2024-01-07T00:09:58;101467.06;;;0.33;68.02
57668;BME280;43499;52.366;12.912;2024-01-07T00:10:59;101454.63;;;0.30;67.80
57668;BME280;43499;52.366;12.912;2024-01-07T00:12:00;101466.84;;;0.44;68.15
57668;BME280;43499;52.366;12.912;2024-01-07T00:13:01;101466.34;;;0.21;68.04
57668;BME280;43499;52.366;12.912;2024-01-07T00:14:02;101452.81;;;0.04;67.78
57668;BME280;43499;52.366;12.912;2024-01-07T00:15:03;101467.19;;;0.27;67.38
57668;BME280;43499;52.366;12.912;2024-01-07T00:16:05;101473.75;;;0.38;68.16
57668;BME280;43499;52.366;12.912;2024-01-07T00:17:06;101459.19;;;0.26;68.20
57668;BME280;43499;52.366;12.912;2024-01-07T00:18:07;101441.97;;;-0.07;67.90
57668;BME280;43499;52.366;12.912;2024-01-07T00:19:08;101479.91;;;0.00;67.79
57668;BME280;43499;52.366;12.912;2024-01-07T00:20:09;101458.69;;;-0.10;67.63
57668;BME280;43499;52.366;12.912;2024-01-07T00:21:11;101480.00;;;0.07;67.89
57668;BME280;43499;52.366;12.912;2024-01-07T00:22:12;101456.72;;;0.20;67.96
57668;BME280;43499;52.366;12.912;2024-01-07T00:23:13;101475.75;;;0.34;67.40
57668;BME280;43499;52.366;12.912;2024-01-07T00:24:14;101469.25;;;0.17;67.17
57668;BME280;43499;52.366;12.912;2024-01-07T00:25:16;101475.34;;;0.18;66.53
57668;BME280;43499;52.366;12.912;2024-01-07T00:26:19;101469.38;;;0.11;66.98
57668;BME280;43499;52.366;12.912;2024-01-07T00:27:20;101488.69;;;0.08;67.41
57668;BME280;43499;52.366;12.912;2024-01-07T00:28:21;101462.34;;;0.10;67.29
57668;BME280;43499;52.366;12.912;2024-01-07T00:29:22;101478.25;;;0.26;67.66
57668;BME280;43499;52.366;12.912;2024-01-07T00:30:23;101474.31;;;0.10;67.33
57668;BME280;43499;52.366;12.912;2024-01-07T00:31:24;101470.69;;;0.02;67.63
57668;BME280;43499;52.366;12.912;2024-01-07T00:32:25;101494.06;;;0.22;68.01
57668;BME280;43499;52.366;12.912;2024-01-07T00:33:27;101494.38;;;0.31;67.75
57668;BME280;43499;52.366;12.912;2024-01-07T00:34:28;101495.19;;;0.24;68.02
57668;BME280;43499;52.366;12.912;2024-01-07T00:35:29;101498.09;;;0.20;67.44
57668;BME280;43499;52.366;12.912;2024-01-07T00:36:30;101495.63;;;0.27;67.66
57668;BME280;43499;52.366;12.912;2024-01-07T00:37:31;101494.25;;;0.37;67.49
57668;BME280;43499;52.366;12.912;2024-01-07T00:38:32;101486.81;;;0.33;67.90
57668;BME280;43499;52.366;12.912;2024-01-07T00:39:33;101477.78;;;0.36;67.73
57668;BME280;43499;52.366;12.912;2024-01-07T00:40:40;101494.44;;;0.51;67.53
57668;BME280;43499;52.366;12.912;2024-01-07T00:41:41;101480.31;;;0.16;67.52
57668;BME280;43499;52.366;12.912;2024-01-07T00:42:42;101508.56;;;0.27;67.38
57668;BME280;43499;52.366;12.912;2024-01-07T00:43:43;101478.16;;;-0.07;67.84
57668;BME280;43499;52.366;12.912;2024-01-07T00:44:44;101491.16;;;0.01;68.24
57668;BME280;43499;52.366;12.912;2024-01-07T00:45:45;101491.38;;;0.15;67.99
57668;BME280;43499;52.366;12.912;2024-01-07T00:46:47;101476.41;;;-0.13;67.64
57668;BME280;43499;52.366;12.912;2024-01-07T00:47:48;101504.63;;;-0.02;67.37
57668;BME280;43499;52.366;12.912;2024-01-07T00:48:50;101485.47;;;-0.23;67.87
57668;BME280;43499;52.366;12.912;2024-01-07T00:49:51;101508.84;;;-0.16;67.78
57668;BME280;43499;52.366;12.912;2024-01-07T00:50:52;101485.66;;;-0.34;67.62
57668;BME280;43499;52.366;12.912;2024-01-07T00:51:53;101509.66;;;-0.09;68.38
57668;BME280;43499;52.366;12.912;2024-01-07T00:52:54;101518.06;;;0.08;68.15
57668;BME280;43499;52.366;12.912;2024-01-07T00:53:55;101511.22;;;0.09;68.00
57668;BME280;43499;52.366;12.912;2024-01-07T00:54:56;101509.97;;;-0.01;68.17
57668;BME280;43499;52.366;12.912;2024-01-07T00:55:58;101521.91;;;0.05;67.72
57668;BME280;43499;52.366;12.912;2024-01-07T00:56:59;101526.72;;;-0.04;67.45
57668;BME280;43499;52.366;12.912;2024-01-07T00:58:00;101505.75;;;0.00;67.58
57668;BME280;43499;52.366;12.912;2024-01-07T00:59:01;101512.88;;;0.21;67.54
57668;BME280;43499;52.366;12.912;2024-01-07T01:00:06;101496.84;;;0.11;67.57
57668;BME280;43499;52.366;12.912;2024-01-07T01:01:07;101524.56;;;-0.01;66.92
57668;BME280;43499;52.366;12.912;2024-01-07T01:02:08;101512.25;;;-0.22;67.44
57668;BME280;43499;52.366;12.912;2024-01-07T01:03:09;101530.66;;;-0.13;67.37
57668;BME280;43499;52.366;12.912;2024-01-07T01:04:10;101524.16;;;-0.04;67.70
57668;BME280;43499;52.366;12.912;2024-01-07T01:05:11;101510.84;;;0.06;67.91
57668;BME280;43499;52.366;12.912;2024-01-07T01:06:12;101497.50;;;0.03;68.20
57668;BME280;43499;52.366;12.912;2024-01-07T01:07:14;101514.09;;;0.30;68.24
57668;BME280;43499;52.366;12.912;2024-01-07T01:08:15;101535.75;;;0.31;67.60
57668;BME280;43499;52.366;12.912;2024-01-07T01:09:17;101529.53;;;0.23;67.75
57668;BME280;43499;52.366;12.912;2024-01-07T01:10:18;101530.47;;;0.11;68.02
57668;BME280;43499;52.366;12.912;2024-01-07T01:11:19;101530.25;;;0.09;68.33
57668;BME280;43499;52.366;12.912;2024-01-07T01:12:20;101539.69;;;0.22;68.35
57668;BME280;43499;52.366;12.912;2024-01-07T01:13:22;101522.72;;;0.11;68.02
57668;BME280;43499;52.366;12.912;2024-01-07T01:14:23;101513.81;;;0.09;68.51
57668;BME280;43499;52.366;12.912;2024-01-07T01:15:24;101531.69;;;0.20;67.96
57668;BME280;43499;52.366;12.912;2024-01-07T01:16:25;101519.41;;;0.12;68.29
57668;BME280;43499;52.366;12.912;2024-01-07T01:17:26;101526.94;;;0.23;68.71
57668;BME280;43499;52.366;12.912;2024-01-07T01:18:27;101531.09;;;0.15;68.05
57668;BME280;43499;52.366;12.912;2024-01-07T01:19:28;101546.16;;;0.12;68.10
57668;BME280;43499;52.366;12.912;2024-01-07T01:20:29;101538.59;;;-0.12;68.03
57668;BME280;43499;52.366;12.912;2024-01-07T01:21:30;101546.69;;;-0.03;68.65
57668;BME280;43499;52.366;12.912;2024-01-07T01:22:31;101551.13;;;-0.02;68.51
57668;BME280;43499;52.366;12.912;2024-01-07T01:23:32;101557.56;;;0.20;68.42
57668;BME280;43499;52.366;12.912;2024-01-07T01:24:33;101550.44;;;-0.01;68.18
57668;BME280;43499;52.366;12.912;2024-01-07T01:25:34;101527.03;;;-0.08;67.26
57668;BME280;43499;52.366;12.912;2024-01-07T01:26:36;101563.50;;;-0.25;66.83
57668;BME280;43499;52.366;12.912;2024-01-07T01:27:38;101553.50;;;-0.17;67.17
57668;BME280;43499;52.366;12.912;2024-01-07T01:28:39;101543.53;;;-0.26;66.89
57668;BME280;43499;52.366;12.912;2024-01-07T01:29:41;101558.50;;;-0.37;67.01
57668;BME280;43499;52.366;12.912;2024-01-07T01:30:42;101555.81;;;-0.31;67.08
57668;BME280;43499;52.366;12.912;2024-01-07T01:31:43;101564.63;;;-0.23;66.77
57668;BME280;43499;52.366;12.912;2024-01-07T01:32:44;101574.31;;;-0.41;66.94
57668;BME280;43499;52.366;12.912;2024-01-07T01:33:45;101546.09;;;-0.39;66.56
57668;BME280;43499;52.366;12.912;2024-01-07T01:34:46;101566.22;;;-0.05;66.78
57668;BME280;43499;52.366;12.912;2024-01-07T01:35:47;101557.22;;;-0.02;66.97
57668;BME280;43499;52.366;12.912;2024-01-07T01:36:48;101567.69;;;0.06;66.69
57668;BME280;43499;52.366;12.912;2024-01-07T01:37:49;101550.28;;;-0.21;65.97
57668;BME280;43499;52.366;12.912;2024-01-07T01:38:50;101573.44;;;-0.16;66.15
57668;BME280;43499;52.366;12.912;2024-01-07T01:39:51;101573.19;;;-0.30;65.75
57668;BME280;43499;52.366;12.912;2024-01-07T01:40:53;101560.75;;;-0.45;66.08
57668;BME280;43499;52.366;12.912;2024-01-07T01:41:54;101561.53;;;-0.21;66.26
57668;BME280;43499;52.366;12.912;2024-01-07T01:42:55;101551.91;;;-0.22;66.09
57668;BME280;43499;52.366;12.912;2024-01-07T01:44:00;101576.03;;;-0.03;66.33
57668;BME280;43499;52.366;12.912;2024-01-07T01:45:01;101566.22;;;-0.18;66.01
57668;BME280;43499;52.366;12.912;2024-01-07T01:46:03;101575.03;;;-0.42;65.88
57668;BME280;43499;52.366;12.912;2024-01-07T01:47:05;101584.56;;;-0.35;65.60
57668;BME280;43499;52.366;12.912;2024-01-07T01:48:08;101565.34;;;-0.56;65.75
57668;BME280;43499;52.366;12.912;2024-01-07T01:49:09;101584.56;;;-0.35;65.79
57668;BME280;43499;52.366;12.912;2024-01-07T01:50:11;101588.97;;;-0.34;66.05
57668;BME280;43499;52.366;12.912;2024-01-07T01:51:12;101583.00;;;-0.27;65.93
57668;BME280;43499;52.366;12.912;2024-01-07T01:52:14;101564.53;;;-0.18;66.48
57668;BME280;43499;52.366;12.912;2024-01-07T01:53:15;101585.41;;;-0.29;65.25
57668;BME280;43499;52.366;12.912;2024-01-07T01:54:16;101554.31;;;-0.55;65.62
57668;BME280;43499;52.366;12.912;2024-01-07T01:55:18;101583.44;;;-0.11;66.22
57668;BME280;43499;52.366;12.912;2024-01-07T01:56:20;101586.38;;;-0.16;65.45
57668;BME280;43499;52.366;12.912;2024-01-07T01:57:21;101555.63;;;-0.33;65.28
57668;BME280;43499;52.366;12.912;2024-01-07T01:58:25;101592.78;;;-0.38;65.76
57668;BME280;43499;52.366;12.912;2024-01-07T01:59:28;101596.00;;;-0.33;66.00
57668;BME280;43499;52.366;12.912;2024-01-07T02:00:30;101568.88;;;-0.24;66.34
57668;BME280;43499;52.366;12.912;2024-01-07T02:01:31;101568.88;;;-0.24;65.83
57668;BME280;43499;52.366;12.912;2024-01-07T02:02:32;101569.06;;;-0.35;65.13
57668;BME280;43499;52.366;12.912;2024-01-07T02:03:35;101585.31;;;-0.23;65.33
57668;BME280;43499;52.366;12.912;2024-01-07T02:04:36;101593.94;;;-0.36;64.69
57668;BME280;43499;52.366;12.912;2024-01-07T02:05:37;101570.41;;;-0.63;64.96
57668;BME280;43499;52.366;12.912;2024-01-07T02:06:38;101580.44;;;-0.59;65.18
57668;BME280;43499;52.366;12.912;2024-01-07T02:07:39;101599.19;;;-0.41;65.17
57668;BME280;43499;52.366;12.912;2024-01-07T02:08:40;101591.97;;;-0.44;65.33
57668;BME280;43499;52.366;12.912;2024-01-07T02:09:41;101596.09;;;-0.39;65.14
57668;BME280;43499;52.366;12.912;2024-01-07T02:10:42;101594.91;;;-0.54;65.48
57668;BME280;43499;52.366;12.912;2024-01-07T02:12:00;101594.75;;;-0.42;65.58
57668;BME280;43499;52.366;12.912;2024-01-07T02:13:01;101604.25;;;-0.49;65.37
57668;BME280;43499;52.366;12.912;2024-01-07T02:14:02;101591.44;;;-0.41;65.05
57668;BME280;43499;52.366;12.912;2024-01-07T02:15:04;101569.16;;;-0.59;65.07
57668;BME280;43499;52.366;12.912;2024-01-07T02:16:05;101558.22;;;-0.64;64.67
57668;BME280;43499;52.366;12.912;2024-01-07T02:17:06;101593.91;;;-0.67;64.23
57668;BME280;43499;52.366;12.912;2024-01-07T02:18:08;101599.25;;;-0.60;64.97
57668;BME280;43499;52.366;12.912;2024-01-07T02:19:09;101582.31;;;-0.58;65.02
57668;BME280;43499;52.366;12.912;2024-01-07T02:20:10;101597.88;;;-0.32;64.77
57668;BME280;43499;52.366;12.912;2024-01-07T02:21:13;101599.72;;;-0.63;64.79
57668;BME280;43499;52.366;12.912;2024-01-07T02:22:14;101588.56;;;-0.69;64.63
57668;BME280;43499;52.366;12.912;2024-01-07T02:23:15;101590.56;;;-0.79;65.09
57668;BME280;43499;52.366;12.912;2024-01-07T02:24:17;101594.16;;;-0.84;64.69
57668;BME280;43499;52.366;12.912;2024-01-07T02:25:18;101607.47;;;-0.63;65.01
57668;BME280;43499;52.366;12.912;2024-01-07T02:26:19;101607.13;;;-0.71;64.79
57668;BME280;43499;52.366;12.912;2024-01-07T02:27:20;101581.00;;;-0.67;65.22
57668;BME280;43499;52.366;12.912;2024-01-07T02:28:21;101593.63;;;-0.63;65.45
57668;BME280;43499;52.366;12.912;2024-01-07T02:29:22;101589.00;;;-0.66;64.75
57668;BME280;43499;52.366;12.912;2024-01-07T02:30:23;101599.78;;;-0.68;64.88
57668;BME280;43499;52.366;12.912;2024-01-07T02:31:24;101592.13;;;-0.55;65.44
57668;BME280;43499;52.366;12.912;2024-01-07T02:32:25;101603.13;;;-0.38;65.23
57668;BME280;43499;52.366;12.912;2024-01-07T02:33:26;101596.69;;;-0.47;64.65
57668;BME280;43499;52.366;12.912;2024-01-07T02:34:27;101577.94;;;-0.65;64.64
57668;BME280;43499;52.366;12.912;2024-01-07T02:35:28;101598.16;;;-0.68;64.57
57668;BME280;43499;52.366;12.912;2024-01-07T02:36:29;101597.66;;;-0.65;64.71
57668;BME280;43499;52.366;12.912;2024-01-07T02:37:30;101605.91;;;-0.68;64.17
57668;BME280;43499;52.366;12.912;2024-01-07T02:38:31;101596.09;;;-0.70;64.41
57668;BME280;43499;52.366;12.912;2024-01-07T02:39:33;101584.81;;;-0.71;64.62
57668;BME280;43499;52.366;12.912;2024-01-07T02:40:34;101613.00;;;-0.54;64.53
57668;BME280;43499;52.366;12.912;2024-01-07T02:41:35;101606.13;;;-0.48;64.70
57668;BME280;43499;52.366;12.912;2024-01-07T02:42:36;101577.75;;;-0.85;64.33
57668;BME280;43499;52.366;12.912;2024-01-07T02:43:37;101605.63;;;-0.64;64.79
57668;BME280;43499;52.366;12.912;2024-01-07T02:44:39;101602.91;;;-0.52;64.21
57668;BME280;43499;52.366;12.912;2024-01-07T02:45:40;101604.75;;;-0.70;64.29
57668;BME280;43499;52.366;12.912;2024-01-07T02:46:41;101591.72;;;-0.77;63.77
57668;BME280;43499;52.366;12.912;2024-01-07T02:47:42;101586.34;;;-0.97;64.15
57668;BME280;43499;52.366;12.912;2024-01-07T02:48:43;101612.50;;;-0.70;64.22
57668;BME280;43499;52.366;12.912;2024-01-07T02:49:44;101584.06;;;-0.83;64.29
57668;BME280;43499;52.366;12.912;2024-01-07T02:50:45;101591.44;;;-0.91;63.89
57668;BME280;43499;52.366;12.912;2024-01-07T02:51:46;101602.31;;;-0.81;64.03
57668;BME280;43499;52.366;12.912;2024-01-07T02:52:50;101616.44;;;-0.66;64.44
57668;BME280;43499;52.366;12.912;2024-01-07T02:53:51;101617.03;;;-0.74;64.51
57668;BME280;43499;52.366;12.912;2024-01-07T02:54:52;101611.72;;;-0.63;63.99
57668;BME280;43499;52.366;12.912;2024-01-07T02:55:53;101604.69;;;-0.83;64.13
57668;BME280;43499;52.366;12.912;2024-01-07T02:56:54;101609.22;;;-0.69;64.19
57668;BME280;43499;52.366;12.912;2024-01-07T02:57:55;101625.47;;;-0.57;64.18
57668;BME280;43499;52.366;12.912;2024-01-07T02:58:56;101615.56;;;-0.54;64.37
57668;BME280;43499;52.366;12.912;2024-01-07T02:59:58;101603.97;;;-0.63;64.17
57668;BME280;43499;52.366;12.912;2024-01-07T03:00:59;101603.38;;;-0.55;64.70
57668;BME280;43499;52.366;12.912;2024-01-07T03:02:00;101623.94;;;-0.49;64.31
57668;BME280;43499;52.366;12.912;2024-01-07T03:03:01;101631.69;;;-0.49;64.04
57668;BME280;43499;52.366;12.912;2024-01-07T03:04:02;101601.66;;;-0.67;64.33
57668;BME280;43499;52.366;12.912;2024-01-07T03:05:03;101626.22;;;-0.58;64.39
57668;BME280;43499;52.366;12.912;2024-01-07T03:06:04;101603.25;;;-0.62;64.38
57668;BME280;43499;52.366;12.912;2024-01-07T03:07:05;101639.31;;;-0.56;63.76
57668;BME280;43499;52.366;12.912;2024-01-07T03:08:06;101643.22;;;-0.66;64.23
57668;BME280;43499;52.366;12.912;2024-01-07T03:09:08;101627.06;;;-0.70;64.57
57668;BME280;43499;52.366;12.912;2024-01-07T03:10:10;101620.19;;;-0.83;64.15
57668;BME280;43499;52.366;12.912;2024-01-07T03:11:11;101616.34;;;-0.98;63.93
57668;BME280;43499;52.366;12.912;2024-01-07T03:12:14;101618.03;;;-0.98;64.17
57668;BME280;43499;52.366;12.912;2024-01-07T03:13:15;101610.06;;;-0.81;63.96
57668;BME280;43499;52.366;12.912;2024-01-07T03:14:17;101608.19;;;-0.82;64.74
57668;BME280;43499;52.366;12.912;2024-01-07T03:15:21;101640.69;;;-0.71;64.68
57668;BME280;43499;52.366;12.912;2024-01-07T03:16:23;101620.16;;;-0.64;64.73
57668;BME280;43499;52.366;12.912;2024-01-07T03:17:24;101654.59;;;-0.95;63.39
57668;BME280;43499;52.366;12.912;2024-01-07T03:18:27;101652.59;;;-0.85;64.01
57668;BME280;43499;52.366;12.912;2024-01-07T03:19:28;101646.47;;;-1.04;63.80
57668;BME280;43499;52.366;12.912;2024-01-07T03:20:29;101671.84;;;-1.07;63.67
57668;BME280;43499;52.366;12.912;2024-01-07T03:21:30;101632.41;;;-1.06;63.36
57668;BME280;43499;52.366;12.912;2024-01-07T03:22:31;101628.28;;;-1.11;64.49
57668;BME280;43499;52.366;12.912;2024-01-07T03:23:32;101634.66;;;-0.96;64.56
57668;BME280;43499;52.366;12.912;2024-01-07T03:24:33;101654.41;;;-1.02;63.87
57668;BME280;43499;52.366;12.912;2024-01-07T03:25:34;101656.16;;;-1.09;63.60
57668;BME280;43499;52.366;12.912;2024-01-07T03:26:35;101651.00;;;-1.09;64.03
57668;BME280;43499;52.366;12.912;2024-01-07T03:27:37;101659.59;;;-1.02;63.70
57668;BME280;43499;52.366;12.912;2024-01-07T03:28:38;101646.03;;;-1.07;63.46
57668;BME280;43499;52.366;12.912;2024-01-07T03:29:39;101660.22;;;-0.98;63.74
57668;BME280;43499;52.366;12.912;2024-01-07T03:30:40;101659.44;;;-0.91;63.59
57668;BME280;43499;52.366;12.912;2024-01-07T03:31:41;101664.03;;;-1.01;63.55
57668;BME280;43499;52.366;12.912;2024-01-07T03:32:42;101645.97;;;-1.01;63.97
57668;BME280;43499;52.366;12.912;2024-01-07T03:33:43;101649.31;;;-1.08;64.07
57668;BME280;43499;52.366;12.912;2024-01-07T03:34:44;101650.16;;;-0.96;63.39
57668;BME280;43499;52.366;12.912;2024-01-07T03:35:45;101657.44;;;-0.99;63.53
57668;BME280;43499;52.366;12.912;2024-01-07T03:36:46;101670.22;;;-1.06;63.27
57668;BME280;43499;52.366;12.912;2024-01-07T03:37:47;101667.50;;;-0.95;63.89
57668;BME280;43499;52.366;12.912;2024-01-07T03:38:48;101664.91;;;-0.95;64.16
57668;BME280;43499;52.366;12.912;2024-01-07T03:39:49;101669.44;;;-1.00;63.47
57668;BME280;43499;52.366;12.912;2024-01-07T03:40:50;101676.34;;;-1.12;63.46
57668;BME280;43499;52.366;12.912;2024-01-07T03:41:55;101676.00;;;-1.26;63.51
57668;BME280;43499;52.366;12.912;2024-01-07T03:42:56;101678.97;;;-1.17;63.64
57668;BME280;43499;52.366;12.912;2024-01-07T03:43:57;101640.75;;;-1.38;64.14
57668;BME280;43499;52.366;12.912;2024-01-07T03:44:58;101676.34;;;-1.12;63.92
57668;BME280;43499;52.366;12.912;2024-01-07T03:46:00;101664.75;;;-1.45;63.32
57668;BME280;43499;52.366;12.912;2024-01-07T03:47:01;101666.72;;;-1.31;63.91
57668;BME280;43499;52.366;12.912;2024-01-07T03:48:02;101685.91;;;-1.29;63.46
57668;BME280;43499;52.366;12.912;2024-01-07T03:49:03;101674.00;;;-1.10;63.52
57668;BME280;43499;52.366;12.912;2024-01-07T03:50:04;101677.53;;;-1.34;63.43
57668;BME280;43499;52.366;12.912;2024-01-07T03:51:05;101684.06;;;-1.30;63.58
57668;BME280;43499;52.366;12.912;2024-01-07T03:52:07;101674.16;;;-1.51;63.19
57668;BME280;43499;52.366;12.912;2024-01-07T03:53:08;101676.56;;;-1.34;63.95
57668;BME280;43499;52.366;12.912;2024-01-07T03:54:09;101650.78;;;-1.59;63.55
57668;BME280;43499;52.366;12.912;2024-01-07T03:55:10;101677.34;;;-1.41;63.55
57668;BME280;43499;52.366;12.912;2024-01-07T03:56:11;101686.53;;;-1.49;63.65
57668;BME280;43499;52.366;12.912;2024-01-07T03:57:12;101657.53;;;-1.53;64.38
57668;BME280;43499;52.366;12.912;2024-01-07T03:58:14;101675.88;;;-1.33;64.17
57668;BME280;43499;52.366;12.912;2024-01-07T03:59:15;101696.94;;;-1.30;63.91
57668;BME280;43499;52.366;12.912;2024-01-07T04:00:16;101703.38;;;-1.40;64.05
57668;BME280;43499;52.366;12.912;2024-01-07T04:01:17;101698.41;;;-1.38;63.77
57668;BME280;43499;52.366;12.912;2024-01-07T04:02:18;101680.69;;;-1.48;63.83
57668;BME280;43499;52.366;12.912;2024-01-07T04:03:19;101688.91;;;-1.50;63.85
57668;BME280;43499;52.366;12.912;2024-01-07T04:04:20;101690.72;;;-1.44;63.80
57668;BME280;43499;52.366;12.912;2024-01-07T04:05:21;101678.75;;;-1.67;64.02
57668;BME280;43499;52.366;12.912;2024-01-07T04:06:22;101687.47;;;-1.73;63.84
57668;BME280;43499;52.366;12.912;2024-01-07T04:07:23;101679.00;;;-1.72;63.69
57668;BME280;43499;52.366;12.912;2024-01-07T04:08:24;101680.00;;;-1.77;64.12
57668;BME280;43499;52.366;12.912;2024-01-07T04:09:25;101702.16;;;-1.66;63.96
57668;BME280;43499;52.366;12.912;2024-01-07T04:10:26;101733.09;;;-1.66;63.66
57668;BME280;43499;52.366;12.912;2024-01-07T04:11:27;101686.78;;;-1.77;63.64
57668;BME280;43499;52.366;12.912;2024-01-07T04:12:28;101668.56;;;-1.84;63.69
57668;BME280;43499;52.366;12.912;2024-01-07T04:13:30;101710.13;;;-1.64;63.94
57668;BME280;43499;52.366;12.912;2024-01-07T04:14:31;101669.25;;;-1.80;64.00
57668;BME280;43499;52.366;12.912;2024-01-07T04:15:34;101671.31;;;-1.77;63.61
57668;BME280;43499;52.366;12.912;2024-01-07T04:16:35;101718.97;;;-1.57;63.66
57668;BME280;43499;52.366;12.912;2024-01-07T04:17:36;101719.06;;;-1.68;63.67
57668;BME280;43499;52.366;12.912;2024-01-07T04:18:37;101679.06;;;-1.77;64.18
57668;BME280;43499;52.366;12.912;2024-01-07T04:19:38;101700.06;;;-1.68;63.58
57668;BME280;43499;52.366;12.912;2024-01-07T04:20:39;101705.28;;;-1.74;63.72
57668;BME280;43499;52.366;12.912;2024-01-07T04:21:45;101692.38;;;-1.74;64.08
57668;BME280;43499;52.366;12.912;2024-01-07T04:22:46;101718.41;;;-1.73;63.91
57668;BME280;43499;52.366;12.912;2024-01-07T04:23:47;101714.25;;;-1.83;63.60
57668;BME280;43499;52.366;12.912;2024-01-07T04:24:49;101747.13;;;-1.64;63.81
57668;BME280;43499;52.366;12.912;2024-01-07T04:25:50;101735.53;;;-1.79;63.34
57668;BME280;43499;52.366;12.912;2024-01-07T04:26:51;101714.13;;;-1.96;63.48
57668;BME280;43499;52.366;12.912;2024-01-07T04:27:52;101737.38;;;-1.72;63.50
57668;BME280;43499;52.366;12.912;2024-01-07T04:28:53;101714.41;;;-1.76;63.53
57668;BME280;43499;52.366;12.912;2024-01-07T04:29:54;101714.47;;;-1.82;63.36
57668;BME280;43499;52.366;12.912;2024-01-07T04:30:55;101696.72;;;-1.86;63.22
57668;BME280;43499;52.366;12.912;2024-01-07T04:31:56;101727.19;;;-1.59;64.07
57668;BME280;43499;52.366;12.912;2024-01-07T04:32:57;101720.91;;;-1.61;64.04
57668;BME280;43499;52.366;12.912;2024-01-07T04:33:58;101734.16;;;-1.52;63.75
57668;BME280;43499;52.366;12.912;2024-01-07T04:34:59;101754.59;;;-1.54;63.89
57668;BME280;43499;52.366;12.912;2024-01-07T04:36:00;101734.34;;;-1.75;63.68
57668;BME280;43499;52.366;12.912;2024-01-07T04:37:01;101723.56;;;-1.73;63.52
57668;BME280;43499;52.366;12.912;2024-01-07T04:38:02;101721.72;;;-1.79;63.55
57668;BME280;43499;52.366;12.912;2024-01-07T04:39:04;101736.25;;;-1.80;64.09
57668;BME280;43499;52.366;12.912;2024-01-07T04:40:05;101737.44;;;-1.83;63.90
57668;BME280;43499;52.366;12.912;2024-01-07T04:41:06;101746.75;;;-1.78;63.89
57668;BME280;43499;52.366;12.912;2024-01-07T04:42:08;101757.50;;;-1.69;63.81
57668;BME280;43499;52.366;12.912;2024-01-07T04:43:09;101727.19;;;-1.89;64.37
57668;BME280;43499;52.366;12.912;2024-01-07T04:44:10;101752.69;;;-1.85;63.85
57668;BME280;43499;52.366;12.912;2024-01-07T04:45:11;101764.25;;;-2.00;63.62
57668;BME280;43499;52.366;12.912;2024-01-07T04:46:13;101744.00;;;-1.86;64.12
57668;BME280;43499;52.366;12.912;2024-01-07T04:47:27;101745.09;;;-1.72;64.07
57668;BME280;43499;52.366;12.912;2024-01-07T04:48:29;101741.75;;;-2.01;63.29
57668;BME280;43499;52.366;12.912;2024-01-07T04:49:30;101753.69;;;-1.96;63.64
57668;BME280;43499;52.366;12.912;2024-01-07T04:50:31;101734.59;;;-2.15;63.68
57668;BME280;43499;52.366;12.912;2024-01-07T04:51:32;101742.94;;;-2.05;63.33
57668;BME280;43499;52.366;12.912;2024-01-07T04:52:33;101724.63;;;-1.95;63.67
57668;BME280;43499;52.366;12.912;2024-01-07T04:53:35;101737.19;;;-1.79;63.92
57668;BME280;43499;52.366;12.912;2024-01-07T04:54:36;101772.53;;;-1.73;63.69
57668;BME280;43499;52.366;12.912;2024-01-07T04:55:37;101755.25;;;-1.79;64.17
57668;BME280;43499;52.366;12.912;2024-01-07T04:56:38;101769.25;;;-1.77;64.22
57668;BME280;43499;52.366;12.912;2024-01-07T04:57:39;101756.00;;;-1.92;63.67
57668;BME280;43499;52.366;12.912;2024-01-07T04:58:40;101771.88;;;-1.83;63.54
57668;BME280;43499;52.366;12.912;2024-01-07T04:59:41;101758.59;;;-1.92;63.76
57668;BME280;43499;52.366;12.912;2024-01-07T05:00:42;101758.81;;;-1.90;63.53
57668;BME280;43499;52.366;12.912;2024-01-07T05:01:43;101777.56;;;-1.91;63.69
57668;BME280;43499;52.366;12.912;2024-01-07T05:02:44;101763.53;;;-1.99;63.31
57668;BME280;43499;52.366;12.912;2024-01-07T05:03:45;101726.41;;;-2.18;62.82
57668;BME280;43499;52.366;12.912;2024-01-07T05:04:46;101772.88;;;-1.94;63.02
57668;BME280;43499;52.366;12.912;2024-01-07T05:05:47;101746.22;;;-2.06;62.77
57668;BME280;43499;52.366;12.912;2024-01-07T05:06:48;101744.34;;;-2.01;62.44
57668;BME280;43499;52.366;12.912;2024-01-07T05:07:50;101767.88;;;-1.81;62.83
57668;BME280;43499;52.366;12.912;2024-01-07T05:08:51;101746.19;;;-2.00;62.92
57668;BME280;43499;52.366;12.912;2024-01-07T05:09:52;101761.91;;;-1.98;62.58
57668;BME280;43499;52.366;12.912;2024-01-07T05:10:53;101766.59;;;-2.02;62.70
57668;BME280;43499;52.366;12.912;2024-01-07T05:11:54;101783.91;;;-1.95;62.76
57668;BME280;43499;52.366;12.912;2024-01-07T05:12:55;101764.22;;;-1.94;62.95
57668;BME280;43499;52.366;12.912;2024-01-07T05:13:56;101792.03;;;-1.80;62.75
57668;BME280;43499;52.366;12.912;2024-01-07T05:14:57;101764.88;;;-1.90;62.23
57668;BME280;43499;52.366;12.912;2024-01-07T05:15:58;101769.38;;;-2.00;62.07
57668;BME280;43499;52.366;12.912;2024-01-07T05:16:59;101770.00;;;-1.84;62.54
57668;BME280;43499;52.366;12.912;2024-01-07T05:18:00;101764.91;;;-1.95;62.42